メインページ
METAR-TAF:

METAR-TAF

空港 :

Loreto, メキシコ

緯度: 26-01N, 経度: 111-21W, 海抜: 15m

現時点の気象観測

当レポートは9時間17分前の00:40(UTC)に作成
北東の風 10kt
気温 28°C
湿度 70%
気圧 1008 hPa
視程: 16.1km
高度24000ftの雲はほとんどない

METAR: MMLT 220040Z 04010KT 10SM FEW240 28/22 A2976 RMK 8/005

時間: 03:57 (09:57 UTC)

予報

当レポートは4時間49分前の05:08(UTC)に作成
予報は22日の 06時(UTC)から 23日の 06時(UTC)まで有効
北東の風 10kt
視程: 10km
高度24000ftの雲は散在している
22日の 1800時(UTC)から
北/北東の風 10kt
視程: 10km
高度8000ftの雲は散在している
高度24000ftの千切れ雲あり
23日の 03時(UTC)から 23日の 05時(UTC)まで徐々に
北/北西の風 5kt

TAF: MMLT 220508Z 2206/2306 04010KT P6SM SCT240 FM221800 03010KT P6SM SCT080 BKN240 BECMG 2303/2305 34005KT

4,000以上の空港の気象観測と天気予報(METAR報とTAF報)

利用可能な観測所は地図上に黄色い丸と赤い丸で示す。

丸の上にカーソルを重ねると観測所名を参照できる。

次にクリックすると気象観測と天気予報を参照できる。

マップの切り替え:黒色「×」印の緑ボタンをクリックして拡大、「-」印の緑ボタンをクリックして縮小、緑色の三角印をクリックして隣りの地図に切り替え


METAR-TAF: